72VA weather

Inova Fairfax Hospital Heliport
Fairfax, Virginia, United States

Public forecast

Using degrees Fahrenheit for public forecast. Weather courtesy of forecast.io.

Closest aviation weather report (METAR) to Inova Fairfax Hospital Heliport

Closest report is Davison Army Air Field, 8.8 nm (16.3 km) SSE. Retrieved 2020/06/01 05:56 UTC (41 minutes ago):

KDAA 010556Z AUTO 32008G15KT 10SM CLR 16/02 A3022 RMK AO2 SLP236 T01620019 10222 20162 52017 TSNO

Closest aviation forecast (TAF) to Inova Fairfax Hospital Heliport

Forecast is more than 12 hours old.

Closest forecast is Davison Army Air Field, 8.8 nm (16.3 km) SSE. Retrieved 2020-05-30 01:06 UTC (2 days ago):

TAF KDAA 300100Z 3001/3107 20009KT 9999 SCT020 BKN090 QNH2991INS TEMPO 3001/3002 20020G35KT 6000 TSRA OVC020CB TEMPO 3004/3008 9000 BR BKN005 BECMG 3008/3009 VRB06KT 9999 SCT010 BKN035 QNH2990INS BECMG 3011/3012 32012G18KT 9999 SCT035 QNH2994INS BECMG 3022/3023 32009KT 9999 BKN065 QNH2991INS TX28/3020Z TN20/3010Z LAST NO AMDS AFT 3001 NEXT 0109